• Join FlightAware (Why Join?)
  • Login
  • US Flag 
09:57PM EDT


 

Airport Tracker/Info


-or-


 

Live Flight TrackerFlight Track Log ✈ AAR214 ✈ 03-Aug-2013 ✈ RKSI / ICN - KSFO

Flight Track Log - Related Links

Times and Time Zones

All times are in EDT time to prevent confusion due to time zone crossing. See the AAR214 flight status page for this flight to view local times or setup timezone preferences in your user account.

Time Position Orientation Groundspeed Altitude Reporting Facility
EDT Latitude Longitude Course Direction KTS MPH feet Rate Location/Type
03:54AM 37.3040 126.6150 161° South 269 310 6,900  Level FlightAware
03:54AM 37.2850 126.6290 150° Southeast 269 310 7,500 2,400 Climbing FlightAware
03:54AM 37.2810 126.6350 130° Southeast 277 319 7,700 1,560 Climbing FlightAware
03:54AM 37.2740 126.6550 114° Southeast 280 322 8,000 1,200 Climbing FlightAware
03:54AM 37.2720 126.6720 98° East 291 335 8,200 360 Climbing FlightAware
03:55AM 37.2740 126.7080 86° East 292 336 8,200 780 Level FlightAware
03:55AM 37.2780 126.7510 83° East 297 342 8,800 1,200 Climbing FlightAware
03:56AM 37.2800 126.7840 86° East 297 342 9,100 780 Climbing FlightAware
03:56AM 37.2810 126.8000 86° East 298 343 9,200 180 Climbing FlightAware
03:56AM 37.2830 126.8340 86° East 301 346 9,200  Level FlightAware
03:56AM 37.2840 126.8590 87° East 298 343 9,200 120 Level FlightAware
03:57AM 37.2870 126.9080 86° East 299 344 9,300 1,920 Climbing FlightAware
03:57AM 37.2830 126.9840 94° East 309 356 11,500 2,640 Climbing FlightAware
03:58AM 37.2640 127.0450 111° Southeast 323 372 12,500 1,320 Climbing FlightAware
03:59AM 37.2430 127.1090 112° Southeast 355 409 13,100 960 Climbing FlightAware
03:59AM 37.2310 127.1690 104° East 376 433 13,600 1,380 Climbing FlightAware
04:00AM 37.2370 127.2390 84° East 387 445 14,500 1,200 Climbing FlightAware
04:00AM 37.2450 127.3260 83° East 394 453 15,000 360 Climbing FlightAware
04:01AM 37.2530 127.4070 83° East 395 455 15,000  Level FlightAware
04:01AM 37.2610 127.4850 83° East 392 451 15,000  Level FlightAware
04:02AM 37.2690 127.5640 83° East 393 452 15,000  Level FlightAware
04:03AM 37.2800 127.6590 82° East 392 451 15,000  Level FlightAware
04:03AM 37.2870 127.7290 83° East 392 451 15,000  Level FlightAware
04:04AM 37.2950 127.7980 82° East 392 451 15,000  Level FlightAware
04:05AM 37.3030 127.8670 82° East 392 451 15,000  Level FlightAware
04:05AM 37.3110 127.9380 82° East 392 451 15,000  Level FlightAware
04:06AM 37.3180 128.0070 83° East 392 451 15,000 720 Level FlightAware
04:09AM 37.5617 128.3625 49° Northeast  Level Estimated
04:10AM 37.6534 128.4972 49° Northeast  Level Estimated
04:11AM 37.7449 128.6323 49° Northeast  Level Estimated
04:12AM 37.8363 128.7677 49° Northeast  Level Estimated
04:13AM 37.9275 128.9035 50° Northeast  Level Estimated
04:14AM 38.0186 129.0396 50° Northeast  Level Estimated
04:15AM 38.1095 129.1760 50° Northeast  Level Estimated
04:16AM 38.2002 129.3127 50° Northeast  Level Estimated
04:17AM 38.2908 129.4498 50° Northeast  Level Estimated
04:18AM 38.3812 129.5873 50° Northeast  Level Estimated
04:19AM 38.4715 129.7251 50° Northeast  Level Estimated
04:20AM 38.5616 129.8632 50° Northeast  Level Estimated
04:21AM 38.6516 130.0017 50° Northeast  Level Estimated
04:22AM 38.7413 130.1405 50° Northeast  Level Estimated
04:23AM 38.8310 130.2797 50° Northeast  Level Estimated
04:24AM 38.9204 130.4192 50° Northeast  Level Estimated
04:25AM 39.0097 130.5591 51° Northeast  Level Estimated
04:26AM 39.0988 130.6994 51° Northeast  Level Estimated
04:26AM 36.4860 131.1570 51° Northeast 512 589 31,000  Level FlightAware
04:27AM 36.4400 131.2680 117° Southeast 513 590 31,000  Level FlightAware
04:28AM 36.4060 131.3560 116° Southeast 513 590 31,000  Level FlightAware
04:28AM 36.3730 131.4390 116° Southeast 513 590 31,000  Level FlightAware
04:29AM 36.3410 131.5210 116° Southeast 513 590 31,000  Level FlightAware
04:29AM 36.4170 131.6620 56° Northeast 515 593 31,000  Level FlightAware
04:30AM 36.4190 131.7790 89° East 514 592 31,000  Level FlightAware
04:31AM 36.4210 131.9060 89° East 514 592 31,000  Level FlightAware
04:31AM 36.4220 132.0360 89° East 512 589 31,000  Level FlightAware
04:32AM 36.4220 132.1280 90° East 512 589 31,000  Level FlightAware
04:33AM 36.4220 132.2190 90° East 512 589 31,000  Level FlightAware
04:35AM 36.3961 132.5672 95° East  Level FlightAware Approximate
04:35AM 36.4290 132.7250 95° East 31,000  Level FlightAware
04:36AM 36.4300 132.8570 89° East 500 575 31,000  Level FlightAware
04:37AM 36.4300 132.9530 90° East 499 574 31,000  Level FlightAware
04:37AM 36.4310 133.0530 89° East 498 573 31,000  Level FlightAware
04:38AM 36.4310 133.1510 90° East 498 573 31,000  Level FlightAware
04:38AM 36.4310 133.2490 90° East 497 572 31,000  Level FlightAware
04:39AM 36.4310 133.3370 90° East 497 572 31,000  Level FlightAware
04:39AM 36.4310 133.4510 90° East 496 571 31,000  Level FlightAware
04:40AM 36.4320 133.5490 89° East 497 572 31,000  Level FlightAware
04:41AM 36.4310 133.6640 91° East 501 577 31,000  Level FlightAware
04:41AM 36.4310 133.7700 90° East 502 578 31,000  Level FlightAware
04:42AM 36.4310 133.8680 90° East 504 580 31,000  Level FlightAware
04:42AM 36.4310 133.9730 90° East 504 580 31,000  Level FlightAware
04:43AM 36.4300 134.0680 91° East 502 578 31,000  Level FlightAware
04:44AM 36.4300 134.1860 90° East 502 578 31,000 120 Level FlightAware
04:44AM 36.4290 134.2870 91° East 504 580 31,200 600 Climbing FlightAware
04:45AM 36.4280 134.3750 91° East 501 577 31,700 900 Climbing FlightAware
04:45AM 36.4280 134.4760 90° East 502 578 32,200 780 Climbing FlightAware
04:46AM 36.4270 134.5900 91° East 500 575 32,700 660 Climbing FlightAware
04:47AM 36.4260 134.6780 91° East 500 575 33,000 240 Climbing FlightAware
04:47AM 36.4250 134.7750 91° East 499 574 33,000  Level FlightAware
04:48AM 36.4240 134.8870 91° East 499 574 33,000  Level FlightAware
04:48AM 36.4230 134.9760 91° East 499 574 33,000  Level FlightAware
04:49AM 36.4210 135.0720 91° East 500 575 33,000  Level FlightAware
04:49AM 36.4200 135.1640 91° East 500 575 33,000  Level FlightAware
04:50AM 36.4190 135.2630 91° East 500 575 33,000  Level FlightAware
04:51AM 36.4170 135.3600 91° East 500 575 33,000  Level FlightAware
04:51AM 36.4160 135.4610 91° East 500 575 33,000  Level FlightAware
04:52AM 36.4140 135.5780 91° East 501 577 33,000  Level FlightAware
04:52AM 36.4120 135.6640 92° East 501 577 33,000  Level FlightAware
04:53AM 36.4100 135.7810 91° East 503 579 33,000  Level FlightAware
04:54AM 36.4080 135.8890 91° East 504 580 33,000  Level FlightAware
04:54AM 36.4060 135.9990 91° East 505 581 33,000  Level FlightAware
04:55AM 36.4030 136.0990 92° East 506 582 33,000  Level FlightAware
04:55AM 36.4010 136.2050 91° East 506 582 33,000  Level FlightAware
04:56AM 36.3990 136.3070 91° East 506 582 33,000  Level FlightAware
04:57AM 36.3990 136.4160 90° East 506 582 33,000  Level FlightAware
04:57AM 36.4060 136.5000 84° East 505 581 33,000  Level FlightAware
04:58AM 36.4170 136.6030 82° East 504 580 33,000 240 Level FlightAware
04:58AM 36.4270 136.7030 83° East 503 579 33,300 540 Climbing FlightAware
04:59AM 36.4370 136.7950 82° East 501 577 33,700 600 Climbing FlightAware
04:59AM 36.4460 136.8880 83° East 502 578 34,000 240 Climbing FlightAware
05:00AM 36.4560 136.9810 82° East 502 578 34,000  Level FlightAware
05:01AM 36.4670 137.0900 83° East 503 579 34,000  Level FlightAware
05:01AM 36.4760 137.1880 83° East 503 579 34,000  Level FlightAware
05:02AM 36.4860 137.2880 83° East 503 579 34,000  Level FlightAware
05:02AM 36.4960 137.3930 83° East 505 581 34,000  Level FlightAware
05:03AM 36.5070 137.5040 83° East 505 581 34,000  Level FlightAware
05:03AM 36.5150 137.5870 83° East 505 581 34,000  Level FlightAware
05:04AM 36.5250 137.6900 83° East 506 582 34,000  Level FlightAware
05:05AM 36.5340 137.7860 83° East 507 583 34,000  Level FlightAware
05:05AM 36.5430 137.8920 84° East 508 585 34,000  Level FlightAware
05:06AM 36.5540 138.0080 83° East 509 586 34,000  Level FlightAware
05:06AM 36.5620 138.0950 83° East 508 585 34,000  Level FlightAware
05:07AM 36.5710 138.1920 83° East 507 583 34,000  Level FlightAware
05:08AM 36.5810 138.3060 84° East 506 582 34,000  Level FlightAware
05:08AM 36.5890 138.4000 84° East 506 582 34,000  Level FlightAware
05:09AM 36.6000 138.5250 84° East 506 582 34,000  Level FlightAware
05:09AM 36.6090 138.6290 84° East 507 583 34,000  Level FlightAware
05:10AM 36.6180 138.7320 84° East 506 582 34,000  Level FlightAware
05:11AM 36.6260 138.8300 84° East 505 581 34,000  Level FlightAware
05:11AM 36.6350 138.9310 84° East 504 580 34,000  Level FlightAware
05:12AM 36.6430 139.0330 84° East 503 579 34,000  Level FlightAware
05:12AM 36.6510 139.1330 84° East 502 578 34,000  Level FlightAware
05:13AM 36.6590 139.2280 84° East 501 577 34,000  Level FlightAware
05:14AM 36.6680 139.3350 84° East 501 577 34,000  Level FlightAware
05:14AM 36.6760 139.4350 84° East 503 579 34,000  Level FlightAware
05:15AM 36.6840 139.5350 84° East 504 580 34,000  Level FlightAware
05:15AM 36.6920 139.6400 85° East 504 580 34,000  Level FlightAware
05:16AM 36.7000 139.7420 84° East 502 578 34,000  Level FlightAware
05:17AM 36.7070 139.8450 85° East 503 579 34,000  Level FlightAware
05:17AM 36.7140 139.9380 85° East 504 580 34,000  Level FlightAware
05:18AM 36.7220 140.0420 84° East 505 581 34,000  Level FlightAware
05:18AM 36.7280 140.1230 85° East 506 582 34,000  Level FlightAware
05:19AM 36.7360 140.2270 84° East 506 582 34,000  Level FlightAware
05:19AM 36.7430 140.3330 85° East 507 583 34,000  Level FlightAware
05:20AM 36.7520 140.4380 84° East 505 581 34,000  Level FlightAware
05:20AM 36.7600 140.5310 84° East 505 581 34,000  Level FlightAware
05:21AM 36.7690 140.6350 84° East 504 580 34,000  Level FlightAware
05:22AM 36.7780 140.7390 84° East 505 581 34,000  Level FlightAware
05:22AM 36.7860 140.8400 84° East 506 582 34,000  Level FlightAware
05:23AM 36.7940 140.9370 84° East 506 582 34,000  Level FlightAware
05:23AM 36.8020 141.0410 84° East 506 582 34,000  Level FlightAware
05:24AM 36.8110 141.1450 84° East 506 582 34,000  Level FlightAware
05:25AM 36.8180 141.2390 85° East 507 583 34,000  Level FlightAware
05:25AM 36.8250 141.3240 84° East 508 585 34,000  Level FlightAware
05:26AM 36.8340 141.4410 84° East 509 586 34,000  Level FlightAware
05:26AM 36.8430 141.5590 85° East 509 586 34,000  Level FlightAware
05:27AM 36.8510 141.6660 85° East 507 583 34,000  Level FlightAware
05:28AM 36.8580 141.7560 84° East 506 582 34,000  Level FlightAware
05:28AM 36.8650 141.8480 85° East 504 580 34,000  Level FlightAware
05:29AM 36.8740 141.9690 85° East 502 578 34,000  Level FlightAware
05:29AM 36.8800 142.0580 85° East 501 577 34,000  Level FlightAware
05:30AM 36.8890 142.1790 85° East 500 575 34,000  Level FlightAware
05:31AM 36.8960 142.2810 85° East 503 579 34,000  Level FlightAware
05:31AM 36.9060 142.4230 85° East 504 580 34,000  Level FlightAware
05:32AM 36.9140 142.5430 85° East 506 582 34,000  Level FlightAware
05:33AM 36.9200 142.6370 85° East 508 585 34,000  Level FlightAware
05:33AM 36.9260 142.7280 85° East 508 585 34,000  Level FlightAware
05:34AM 36.9330 142.8260 85° East 509 586 34,000  Level FlightAware
05:34AM 36.9410 142.9450 85° East 509 586 34,000  Level FlightAware
05:35AM 36.9470 143.0420 86° East 509 586 34,000  Level FlightAware
05:36AM 36.9530 143.1320 85° East 509 586 34,000  Level FlightAware
05:36AM 36.9610 143.2720 86° East 507 583 34,000  Level FlightAware
05:37AM 36.9670 143.3720 86° East 507 583 34,000  Level FlightAware
05:38AM 36.9720 143.4610 86° East 507 583 34,000  Level FlightAware
05:38AM 36.9770 143.5530 86° East 507 583 34,000  Level FlightAware
05:39AM 36.9810 143.6380 87° East 507 583 34,000  Level FlightAware
05:39AM 36.9860 143.7280 86° East 507 583 34,000  Level FlightAware
05:40AM 36.9910 143.8170 86° East 507 583 34,000  Level FlightAware
05:43AM 37.0325 144.2630 82° East  Level FlightAware Approximate
05:44AM 37.0524 144.4375 82° East  Level FlightAware Approximate
05:45AM 37.0720 144.6122 82° East  Level FlightAware Approximate
05:46AM 37.0914 144.7869 82° East  Level FlightAware Approximate
05:47AM 37.1105 144.9617 82° East  Level FlightAware Approximate
05:48AM 37.1294 145.1365 82° East  Level FlightAware Approximate
05:49AM 37.1480 145.3115 82° East  Level FlightAware Approximate
05:50AM 37.1664 145.4865 82° East  Level FlightAware Approximate
05:51AM 37.1860 145.6613 74° East  Level FlightAware Approximate
05:52AM 37.2251 145.8310 74° East  Level FlightAware Approximate
05:53AM 37.2641 146.0009 74° East  Level FlightAware Approximate
05:54AM 37.3028 146.1709 74° East  Level FlightAware Approximate
05:55AM 37.3412 146.3411 74° East  Level FlightAware Approximate
05:56AM 37.3794 146.5115 74° East  Level FlightAware Approximate
05:57AM 37.4174 146.6821 74° East  Level FlightAware Approximate
05:58AM 37.4551 146.8528 74° East  Level FlightAware Approximate
05:59AM 37.4926 147.0237 75° East  Level FlightAware Approximate
06:00AM 37.5298 147.1948 75° East  Level FlightAware Approximate
06:01AM 37.5668 147.3660 75° East  Level FlightAware Approximate
06:02AM 37.6035 147.5374 75° East  Level FlightAware Approximate
06:03AM 37.6400 147.7090 75° East  Level FlightAware Approximate
06:04AM 37.6762 147.8808 75° East  Level FlightAware Approximate
06:05AM 37.7122 148.0527 75° East  Level FlightAware Approximate
06:06AM 37.7479 148.2248 75° East  Level FlightAware Approximate
06:07AM 37.7834 148.3970 75° East  Level FlightAware Approximate
06:08AM 37.8186 148.5694 75° East  Level FlightAware Approximate
06:09AM 37.8536 148.7420 76° East  Level FlightAware Approximate
06:10AM 37.8883 148.9148 76° East  Level FlightAware Approximate
06:11AM 37.9228 149.0877 76° East  Level FlightAware Approximate
06:12AM 37.9570 149.2607 76° East  Level FlightAware Approximate
06:13AM 37.9910 149.4340 76° East  Level FlightAware Approximate
06:14AM 38.0247 149.6074 76° East  Level FlightAware Approximate
06:15AM 38.0582 149.7809 76° East  Level FlightAware Approximate
06:16AM 38.0914 149.9546 76° East  Level FlightAware Approximate
06:17AM 38.1607 150.1073 54° Northeast  Level FlightAware Approximate
06:18AM 38.2428 150.2527 54° Northeast  Level FlightAware Approximate
06:19AM 38.3246 150.3985 54° Northeast  Level FlightAware Approximate
06:20AM 38.4063 150.5446 54° Northeast  Level FlightAware Approximate
06:21AM 38.4879 150.6911 55° Northeast  Level FlightAware Approximate
06:22AM 38.5692 150.8379 54° Northeast  Level FlightAware Approximate
06:23AM 38.6513 150.9841 54° Northeast  Level FlightAware Approximate
06:24AM 38.7333 151.1307 54° Northeast  Level FlightAware Approximate
06:25AM 38.8150 151.2776 54° Northeast  Level FlightAware Approximate
06:26AM 38.8966 151.4248 55° Northeast  Level FlightAware Approximate
06:27AM 38.9780 151.5724 55° Northeast  Level FlightAware Approximate
06:28AM 39.0592 151.7203 55° Northeast  Level FlightAware Approximate
06:29AM 39.1402 151.8686 55° Northeast  Level FlightAware Approximate
06:30AM 39.2210 152.0172 55° Northeast  Level FlightAware Approximate
06:31AM 39.3017 152.1661 55° Northeast  Level FlightAware Approximate
06:32AM 39.3821 152.3154 55° Northeast  Level FlightAware Approximate
06:33AM 39.4624 152.4650 55° Northeast  Level FlightAware Approximate
06:34AM 39.5422 152.6152 56° Northeast  Level FlightAware Approximate
06:35AM 39.6215 152.7661 56° Northeast  Level FlightAware Approximate
06:36AM 39.7281 152.9702 56° Northeast  Level FlightAware Approximate
06:37AM 39.8343 153.1750 56° Northeast  Level FlightAware Approximate
06:38AM 39.9402 153.3804 56° Northeast  Level FlightAware Approximate
06:39AM 40.0458 153.5864 56° Northeast  Level FlightAware Approximate
06:40AM 40.1510 153.7931 56° Northeast  Level FlightAware Approximate
06:41AM 40.2558 154.0004 56° Northeast  Level FlightAware Approximate
06:42AM 40.3602 154.2084 57° Northeast  Level FlightAware Approximate
06:43AM 40.4642 154.4170 57° Northeast  Level FlightAware Approximate
06:44AM 40.5679 154.6263 57° Northeast  Level FlightAware Approximate
06:45AM 40.6712 154.8362 57° Northeast  Level FlightAware Approximate
06:46AM 40.7742 155.0468 57° Northeast  Level FlightAware Approximate
06:47AM 40.8767 155.2580 57° Northeast  Level FlightAware Approximate
06:48AM 40.9789 155.4698 57° Northeast  Level FlightAware Approximate
06:49AM 41.0806 155.6823 58° Northeast  Level FlightAware Approximate
06:50AM 41.1820 155.8955 58° Northeast  Level FlightAware Approximate
06:51AM 41.2830 156.1093 58° Northeast  Level FlightAware Approximate
06:52AM 41.3835 156.3239 58° Northeast  Level FlightAware Approximate
06:53AM 41.4837 156.5390 58° Northeast  Level FlightAware Approximate
06:54AM 41.5835 156.7548 58° Northeast  Level FlightAware Approximate
06:55AM 41.6829 156.9713 58° Northeast  Level FlightAware Approximate
06:56AM 41.7819 157.1885 59° Northeast  Level FlightAware Approximate
06:57AM 41.8804 157.4063 59° Northeast  Level FlightAware Approximate
06:58AM 41.9786 157.6248 59° Northeast  Level FlightAware Approximate
06:59AM 42.0763 157.8440 59° Northeast  Level FlightAware Approximate
07:00AM 42.1736 158.0638 59° Northeast  Level FlightAware Approximate
07:01AM 42.2705 158.2844 59° Northeast  Level FlightAware Approximate
07:02AM 42.3670 158.5056 59° Northeast  Level FlightAware Approximate
07:03AM 42.4630 158.7274 60° Northeast  Level FlightAware Approximate
07:04AM 42.5586 158.9500 60° Northeast  Level FlightAware Approximate
07:05AM 42.6538 159.1732 60° Northeast  Level FlightAware Approximate
07:06AM 42.7485 159.3972 60° Northeast  Level FlightAware Approximate
07:07AM 42.8428 159.6218 60° Northeast  Level FlightAware Approximate
07:08AM 42.9367 159.8471 60° Northeast  Level FlightAware Approximate
07:09AM 43.0265 160.0756 64° Northeast  Level FlightAware Approximate
07:10AM 43.1083 160.3102 64° Northeast  Level FlightAware Approximate
07:11AM 43.1895 160.5455 65° Northeast  Level FlightAware Approximate
07:12AM 43.2703 160.7813 65° Northeast  Level FlightAware Approximate
07:13AM 43.3514 161.0173 64° Northeast  Level FlightAware Approximate
07:14AM 43.4346 161.2522 64° Northeast  Level FlightAware Approximate
07:15AM 43.5173 161.4877 64° Northeast  Level FlightAware Approximate
07:16AM 43.5995 161.7239 64° Northeast  Level FlightAware Approximate
07:17AM 43.6813 161.9608 64° Northeast  Level FlightAware Approximate
07:18AM 43.7609 162.1993 65° Northeast  Level FlightAware Approximate
07:19AM 43.8399 162.4385 65° Northeast  Level FlightAware Approximate
07:20AM 43.9184 162.6784 65° Northeast  Level FlightAware Approximate
07:21AM 43.9964 162.9189 66° East  Level FlightAware Approximate
07:22AM 44.0740 163.1600 66° East  Level FlightAware Approximate
07:23AM 44.1510 163.4018 66° East  Level FlightAware Approximate
07:24AM 44.2275 163.6441 66° East  Level FlightAware Approximate
07:25AM 44.3035 163.8871 66° East  Level FlightAware Approximate
07:26AM 44.3787 164.1309 67° East  Level FlightAware Approximate
07:27AM 44.4533 164.3754 67° East  Level FlightAware Approximate
07:28AM 44.5273 164.6205 67° East  Level FlightAware Approximate
07:29AM 44.6008 164.8663 67° East  Level FlightAware Approximate
07:30AM 44.6739 165.1126 67° East  Level FlightAware Approximate
07:31AM 44.7463 165.3596 67° East  Level FlightAware Approximate
07:32AM 44.8182 165.6072 68° East  Level FlightAware Approximate
07:33AM 44.8896 165.8554 68° East  Level FlightAware Approximate
07:34AM 44.9612 166.1038 68° East  Level FlightAware Approximate
07:35AM 45.0327 166.3526 68° East  Level FlightAware Approximate
07:36AM 45.1036 166.6020 68° East  Level FlightAware Approximate
07:37AM 45.1740 166.8520 68° East  Level FlightAware Approximate
07:38AM 45.2439 167.1026 68° East  Level FlightAware Approximate
07:39AM 45.3132 167.3539 69° East  Level FlightAware Approximate
07:40AM 45.3819 167.6057 69° East  Level FlightAware Approximate
07:41AM 45.4501 167.8582 69° East  Level FlightAware Approximate
07:42AM 45.5177 168.1113 69° East  Level FlightAware Approximate
07:43AM 45.5848 168.3649 69° East  Level FlightAware Approximate
07:44AM 45.6513 168.6192 69° East  Level FlightAware Approximate
07:45AM 45.7173 168.8741 70° East  Level FlightAware Approximate
07:46AM 45.7827 169.1296 70° East  Level FlightAware Approximate
07:47AM 45.8475 169.3857 70° East  Level FlightAware Approximate
07:48AM 45.9117 169.6424 70° East  Level FlightAware Approximate
07:49AM 45.9754 169.8996 70° East  Level FlightAware Approximate
07:50AM 46.0233 170.1635 78° East  Level FlightAware Approximate
07:51AM 46.0610 170.4316 78° East  Level FlightAware Approximate
07:52AM 46.0981 170.7001 79° East  Level FlightAware Approximate
07:53AM 46.1345 170.9690 79° East  Level FlightAware Approximate
07:54AM 46.1704 171.2381 79° East  Level FlightAware Approximate
07:55AM 46.2055 171.5077 79° East  Level FlightAware Approximate
07:56AM 46.2401 171.7776 79° East  Level FlightAware Approximate
07:57AM 46.2740 172.0478 80° East  Level FlightAware Approximate
07:58AM 46.3073 172.3183 80° East  Level FlightAware Approximate
07:59AM 46.3399 172.5892 80° East  Level FlightAware Approximate
08:00AM 46.3719 172.8604 80° East  Level FlightAware Approximate
08:01AM 46.4033 173.1319 80° East  Level FlightAware Approximate
08:02AM 46.4340 173.4037 81° East  Level FlightAware Approximate
08:03AM 46.4640 173.6759 81° East  Level FlightAware Approximate
08:04AM 46.4937 173.9482 81° East  Level FlightAware Approximate
08:05AM 46.5227 174.2209 81° East  Level FlightAware Approximate
08:06AM 46.5511 174.4938 81° East  Level FlightAware Approximate
08:07AM 46.5789 174.7671 82° East  Level FlightAware Approximate
08:08AM 46.6059 175.0406 82° East  Level FlightAware Approximate
08:09AM 46.6324 175.3143 82° East  Level FlightAware Approximate
08:10AM 46.6582 175.5884 82° East  Level FlightAware Approximate
08:11AM 46.6833 175.8627 82° East  Level FlightAware Approximate
08:12AM 46.7077 176.1372 82° East  Level FlightAware Approximate
08:13AM 46.7316 176.4120 83° East  Level FlightAware Approximate
08:14AM 46.7547 176.6870 83° East  Level FlightAware Approximate
08:15AM 46.7772 176.9623 83° East  Level FlightAware Approximate
08:16AM 46.7990 177.2378 83° East  Level FlightAware Approximate
08:17AM 46.8206 177.5134 83° East  Level FlightAware Approximate
08:18AM 46.8432 177.7890 83° East  Level FlightAware Approximate
08:19AM 46.8651 178.0648 83° East  Level FlightAware Approximate
08:20AM 46.8864 178.3409 83° East  Level FlightAware Approximate
08:21AM 46.9070 178.6171 84° East  Level FlightAware Approximate
08:22AM 46.9269 178.8936 84° East  Level FlightAware Approximate
08:23AM 46.9462 179.1702 84° East  Level FlightAware Approximate
08:24AM 46.9649 179.4471 84° East  Level FlightAware Approximate
08:25AM 46.9828 179.7241 84° East  Level FlightAware Approximate
08:26AM 47.0001 -179.9986 86° East  Level FlightAware Approximate
08:27AM 47.0118 -179.7207 86° East  Level FlightAware Approximate
08:28AM 47.0230 -179.4427 87° East  Level FlightAware Approximate
08:29AM 47.0334 -179.1645 87° East  Level FlightAware Approximate
08:30AM 47.0432 -178.8862 87° East  Level FlightAware Approximate
08:31AM 47.0523 -178.6079 87° East  Level FlightAware Approximate
08:32AM 47.0607 -178.3294 87° East  Level FlightAware Approximate
08:33AM 47.0684 -178.0509 88° East  Level FlightAware Approximate
08:34AM 47.0755 -177.7723 88° East  Level FlightAware Approximate
08:35AM 47.0819 -177.4936 88° East  Level FlightAware Approximate
08:36AM 47.0876 -177.2149 88° East  Level FlightAware Approximate
08:37AM 47.0926 -176.9361 88° East  Level FlightAware Approximate
08:38AM 47.0970 -176.6572 89° East  Level FlightAware Approximate
08:38AM 46.6667 175.6167 82° East 559 643 35,000  Level Oakland Oceanic (ODAPS)
08:39AM 47.1007 -176.3783 89° East  Level FlightAware Approximate
08:40AM 47.1037 -176.0994 89° East  Level FlightAware Approximate
08:41AM 47.1060 -175.8204 89° East  Level FlightAware Approximate
08:42AM 47.1077 -175.5415 89° East  Level FlightAware Approximate
08:43AM 47.1086 -175.2625 90° East  Level FlightAware Approximate
08:44AM 46.7900 176.9948 83° East 559 643 35,000  Level FlightAware Transoceanic
08:45AM 46.8089 177.2251 83° East 559 643 35,000  Level FlightAware Transoceanic
08:46AM 46.8274 177.4556 83° East 559 643 35,000  Level FlightAware Transoceanic
08:47AM 46.8454 177.6862 84° East 559 643 35,000  Level FlightAware Transoceanic
08:48AM 46.8630 177.9169 84° East 559 643 35,000  Level FlightAware Transoceanic
08:49AM 46.8801 178.1478 84° East 559 643 35,000  Level FlightAware Transoceanic
08:50AM 46.8967 178.3789 84° East 559 643 35,000  Level FlightAware Transoceanic
08:51AM 46.9128 178.6101 84° East 559 643 35,000  Level FlightAware Transoceanic
08:51AM 46.9167 178.7167 84° East 553 636 35,000  Level Oakland Oceanic (ODAPS)
08:52AM 46.9285 178.8414 84° East 559 643 35,000  Level FlightAware Transoceanic
08:53AM 46.9438 179.0729 85° East 559 643 35,000  Level FlightAware Transoceanic
08:54AM 46.9585 179.3045 85° East 559 643 35,000  Level FlightAware Transoceanic
08:55AM 46.9728 179.5362 85° East 559 643 35,000  Level FlightAware Transoceanic
08:56AM 46.9866 179.7680 85° East 559 643 35,000  Level FlightAware Transoceanic
08:57AM 47.0000 -180.0000 86° East 559 643 35,000  Level FlightAware Transoceanic
08:57AM 47.0000 180.0000 86° East 552 635 35,000  Level Oakland Oceanic (ODAPS)
08:58AM 47.0000 -180.0000 86° East 553 636 35,000  Level FlightAware Transoceanic
08:59AM 47.0095 -179.7783 87° East 553 636 35,000  Level FlightAware Transoceanic
09:00AM 47.0185 -179.5566 87° East 553 636 35,000  Level FlightAware Transoceanic
09:01AM 47.0271 -179.3348 87° East 553 636 35,000  Level FlightAware Transoceanic
09:02AM 47.0353 -179.1129 87° East 553 636 35,000  Level FlightAware Transoceanic
09:03AM 47.0439 -178.8658 87° East 552 635 35,000  Level FlightAware Transoceanic
09:04AM 47.0513 -178.6387 87° East 552 635 35,000  Level FlightAware Transoceanic
09:05AM 47.0583 -178.4116 88° East 552 635 35,000  Level FlightAware Transoceanic
09:05AM 47.0667 -178.1833 88° East 544 626 35,000  Level Oakland Oceanic (ODAPS)
09:06AM 47.0648 -178.1844 88° East 552 635 35,000  Level FlightAware Transoceanic
09:07AM 47.0709 -177.9572 88° East 552 635 35,000  Level FlightAware Transoceanic
09:08AM 47.0765 -177.7299 88° East 552 635 35,000  Level FlightAware Transoceanic
09:09AM 47.0817 -177.5026 88° East 552 635 35,000  Level FlightAware Transoceanic
09:10AM 47.0864 -177.2752 88° East 552 635 35,000  Level FlightAware Transoceanic
09:11AM 47.0907 -177.0478 88° East 552 635 35,000  Level FlightAware Transoceanic
09:12AM 47.0955 -176.8563 89° East 544 626 35,000  Level FlightAware Transoceanic
09:13AM 47.0988 -176.6350 89° East 544 626 35,000  Level FlightAware Transoceanic
09:14AM 47.1017 -176.4137 89° East 544 626 35,000  Level FlightAware Transoceanic
09:15AM 47.1041 -176.1923 89° East 544 626 35,000  Level FlightAware Transoceanic
09:16AM 47.1062 -175.9710 89° East 544 626 35,000  Level FlightAware Transoceanic
09:17AM 47.1078 -175.7496 89° East 544 626 35,000  Level FlightAware Transoceanic
09:18AM 47.1090 -175.5282 90° East 544 626 35,000  Level FlightAware Transoceanic
09:19AM 47.1097 -175.3068 90° East 544 626 35,000  Level FlightAware Transoceanic
09:19AM 47.1167 -175.1167 90° East 538 619 35,000  Level Oakland Oceanic (ODAPS)
09:20AM 47.1101 -175.0854 90° East 544 626 35,000  Level FlightAware Transoceanic
09:21AM 47.1100 -174.8640 90° East 544 626 35,000  Level FlightAware Transoceanic
09:22AM 47.1094 -174.6426 90° East 544 626 35,000  Level FlightAware Transoceanic
09:23AM 47.1085 -174.4212 90° East 544 626 35,000  Level FlightAware Transoceanic
09:24AM 47.1071 -174.1998 91° East 544 626 35,000  Level FlightAware Transoceanic
09:25AM 47.1053 -173.9784 91° East 544 626 35,000  Level FlightAware Transoceanic
09:26AM 47.1082 -173.7801 91° East 538 619 35,000  Level FlightAware Transoceanic
09:27AM 47.1053 -173.5573 91° East 538 619 35,000  Level FlightAware Transoceanic
09:28AM 47.1020 -173.3347 91° East 538 619 35,000  Level FlightAware Transoceanic
09:29AM 47.0982 -173.1120 92° East 538 619 35,000  Level FlightAware Transoceanic
09:30AM 47.0940 -172.8894 92° East 538 619 35,000  Level FlightAware Transoceanic
09:31AM 47.0893 -172.6668 92° East 538 619 35,000  Level FlightAware Transoceanic
09:32AM 47.0842 -172.4443 92° East 538 619 35,000  Level FlightAware Transoceanic
09:33AM 47.0787 -172.2218 92° East 538 619 35,000  Level FlightAware Transoceanic
09:33AM 47.0667 -172.1000 92° East 533 613 35,000  Level Oakland Oceanic (ODAPS)
09:34AM 47.0728 -171.9993 92° East 538 619 35,000  Level FlightAware Transoceanic
09:35AM 47.0664 -171.7769 92° East 538 619 35,000  Level FlightAware Transoceanic
09:36AM 47.0596 -171.5546 93° East 538 619 35,000  Level FlightAware Transoceanic
09:37AM 47.0524 -171.3323 93° East 538 619 35,000  Level FlightAware Transoceanic
09:38AM 47.0447 -171.1101 93° East 538 619 35,000  Level FlightAware Transoceanic
09:39AM 47.0313 -170.8394 93° East 533 613 35,000  Level FlightAware Transoceanic
09:40AM 47.0240 -170.6294 93° East 533 613 35,000  Level FlightAware Transoceanic
09:41AM 47.0164 -170.4196 93° East 533 613 35,000  Level FlightAware Transoceanic
09:42AM 47.0084 -170.2097 93° East 533 613 35,000  Level FlightAware Transoceanic
09:43AM 47.0000 -170.0000 95° East 533 613 35,000  Level FlightAware Transoceanic
09:43AM 47.0000 -170.0000 95° East 530 610 35,000  Level Oakland Oceanic (ODAPS)
09:44AM 46.9879 -169.7839 95° East 533 613 35,000  Level FlightAware Transoceanic
09:45AM 46.9754 -169.5679 95° East 533 613 35,000  Level FlightAware Transoceanic
09:46AM 46.9625 -169.3520 95° East 533 613 35,000  Level FlightAware Transoceanic
09:47AM 46.9492 -169.1362 95° East 533 613 35,000  Level FlightAware Transoceanic
09:47AM 46.9500 -169.1167 95° East 526 605 35,000  Level Oakland Oceanic (ODAPS)
09:48AM 46.9355 -168.9205 95° East 533 613 35,000  Level FlightAware Transoceanic
09:49AM 46.9213 -168.7050 96° East 530 610 35,000  Level FlightAware Transoceanic
09:50AM 46.9068 -168.4895 96° East 530 610 35,000  Level FlightAware Transoceanic
09:51AM 46.8918 -168.2742 96° East 530 610 35,000  Level FlightAware Transoceanic
09:52AM 46.8765 -168.0590 96° East 530 610 35,000  Level FlightAware Transoceanic
09:53AM 46.8635 -167.8563 96° East 526 605 35,000  Level FlightAware Transoceanic
09:54AM 46.8477 -167.6467 96° East 526 605 35,000  Level FlightAware Transoceanic
09:55AM 46.8316 -167.4371 97° East 526 605 35,000  Level FlightAware Transoceanic
09:56AM 46.8150 -167.2278 97° East 526 605 35,000  Level FlightAware Transoceanic
09:57AM 46.7981 -167.0185 97° East 526 605 35,000  Level FlightAware Transoceanic
09:58AM 46.7808 -166.8094 97° East 526 605 35,000  Level FlightAware Transoceanic
09:59AM 46.7632 -166.6004 97° East 526 605 35,000  Level FlightAware Transoceanic
10:00AM 46.7451 -166.3915 97° East 526 605 35,000  Level FlightAware Transoceanic
10:01AM 46.7267 -166.1828 97° East 526 605 35,000 780 Level FlightAware Transoceanic
10:01AM 46.7333 -166.1833 98° East 530 610 36,000  Climbing Oakland Oceanic (ODAPS)
10:02AM 46.7079 -165.9742 98° East 526 605 35,000 -600 Descending FlightAware Transoceanic
10:03AM 46.6887 -165.7658 98° East 526 605 35,000  Level FlightAware Transoceanic
10:04AM 46.6691 -165.5575 98° East 526 605 35,000  Level FlightAware Transoceanic
10:05AM 46.6492 -165.3494 98° East 526 605 35,000  Level FlightAware Transoceanic
10:06AM 46.6288 -165.1414 98° East 526 605 35,000 480 Level FlightAware Transoceanic
10:07AM 46.6135 -164.9339 98° East 530 610 36,000 480 Climbing FlightAware Transoceanic
10:08AM 46.5922 -164.7262 99° East 530 610 36,000  Level FlightAware Transoceanic
10:09AM 46.5705 -164.5187 99° East 530 610 36,000  Level FlightAware Transoceanic
10:10AM 46.5485 -164.3114 99° East 530 610 36,000  Level FlightAware Transoceanic
10:11AM 46.5260 -164.1042 99° East 530 610 36,000  Level FlightAware Transoceanic
10:12AM 46.5033 -163.8972 99° East 530 610 36,000  Level FlightAware Transoceanic
10:13AM 46.4801 -163.6903 99° East 530 610 36,000  Level FlightAware Transoceanic
10:14AM 46.4565 -163.4837 99° East 530 610 36,000  Level FlightAware Transoceanic
10:15AM 46.4326 -163.2772 100° East 530 610 36,000  Level FlightAware Transoceanic
10:15AM 46.4167 -163.2500 99° East 528 608 36,000  Level Oakland Oceanic (ODAPS)
10:16AM 46.4083 -163.0709 100° East 530 610 36,000  Level FlightAware Transoceanic
10:17AM 46.3837 -162.8648 100° East 530 610 36,000  Level FlightAware Transoceanic
10:18AM 46.3587 -162.6589 100° East 530 610 36,000  Level FlightAware Transoceanic
10:19AM 46.3333 -162.4531 100° East 530 610 36,000  Level FlightAware Transoceanic
10:20AM 46.3075 -162.2476 100° East 530 610 36,000  Level FlightAware Transoceanic
10:21AM 46.2712 -162.0255 100° East 528 608 36,000  Level FlightAware Transoceanic
10:22AM 46.2457 -161.8221 100° East 528 608 36,000  Level FlightAware Transoceanic
10:23AM 46.2198 -161.6188 100° East 528 608 36,000  Level FlightAware Transoceanic
10:24AM 46.1936 -161.4158 101° East 528 608 36,000  Level FlightAware Transoceanic
10:25AM 46.1670 -161.2129 101° East 528 608 36,000  Level FlightAware Transoceanic
10:26AM 46.1401 -161.0103 101° East 528 608 36,000  Level FlightAware Transoceanic
10:27AM 46.1128 -160.8078 101° East 528 608 36,000  Level FlightAware Transoceanic
10:28AM 46.0851 -160.6055 101° East 528 608 36,000  Level FlightAware Transoceanic
10:29AM 46.0571 -160.4035 101° East 528 608 36,000  Level FlightAware Transoceanic
10:29AM 46.0500 -160.4000 100° East 516 594 36,000  Level Oakland Oceanic (ODAPS)
10:30AM 46.0287 -160.2016 102° East 528 608 36,000  Level FlightAware Transoceanic
10:30AM 46.0000 -160.0000 86° East 516 594 36,000  Level Oakland Oceanic (ODAPS)
10:31AM 46.0000 -160.0000 86° East 528 608 36,000  Level FlightAware Transoceanic
10:32AM 46.0089 -159.7922 87° East 528 608 36,000  Level FlightAware Transoceanic
10:33AM 46.0174 -159.5843 87° East 528 608 36,000  Level FlightAware Transoceanic
10:34AM 46.0256 -159.3763 87° East 528 608 36,000  Level FlightAware Transoceanic
10:35AM 46.0333 -159.1683 87° East 516 594 36,000  Level FlightAware Transoceanic
10:36AM 46.0407 -158.9603 87° East 516 594 36,000  Level FlightAware Transoceanic
10:37AM 46.0477 -158.7522 87° East 516 594 36,000  Level FlightAware Transoceanic
10:38AM 46.0544 -158.5440 87° East 516 594 36,000  Level FlightAware Transoceanic
10:39AM 46.0606 -158.3358 88° East 516 594 36,000  Level FlightAware Transoceanic
10:40AM 46.0665 -158.1275 88° East 516 594 36,000  Level FlightAware Transoceanic
10:41AM 46.0720 -157.9192 88° East 516 594 36,000  Level FlightAware Transoceanic
10:42AM 46.0771 -157.7109 88° East 516 594 36,000  Level FlightAware Transoceanic
10:42AM 46.0833 -157.5500 88° East 519 597 36,000  Level Oakland Oceanic (ODAPS)
10:43AM 46.0818 -157.5025 88° East 516 594 36,000  Level FlightAware Transoceanic
10:44AM 46.0862 -157.2941 88° East 516 594 36,000  Level FlightAware Transoceanic
10:45AM 46.0902 -157.0856 88° East 516 594 36,000  Level FlightAware Transoceanic
10:46AM 46.0938 -156.8771 89° East 516 594 36,000  Level FlightAware Transoceanic
10:47AM 46.0970 -156.6686 89° East 516 594 36,000  Level FlightAware Transoceanic
10:48AM 46.0998 -156.4601 89° East 516 594 36,000  Level FlightAware Transoceanic
10:49AM 46.1040 -156.2911 89° East 519 597 36,000  Level FlightAware Transoceanic
10:50AM 46.1061 -156.0812 89° East 519 597 36,000  Level FlightAware Transoceanic
10:51AM 46.1078 -155.8713 89° East 519 597 36,000  Level FlightAware Transoceanic
10:52AM 46.1091 -155.6614 90° East 519 597 36,000  Level FlightAware Transoceanic
10:53AM 46.1101 -155.4515 90° East 519 597 36,000  Level FlightAware Transoceanic
10:54AM 46.1107 -155.2416 90° East 519 597 36,000  Level FlightAware Transoceanic
10:55AM 46.1108 -155.0316 90° East 519 597 36,000  Level FlightAware Transoceanic
10:56AM 46.1106 -154.8217 90° East 519 597 36,000 540 Level FlightAware Transoceanic
10:56AM 46.1167 -154.6833 90° East 517 595 37,000  Climbing Oakland Oceanic (ODAPS)
10:57AM 46.1101 -154.6118 90° East 519 597 36,000 -840 Descending FlightAware Transoceanic
10:58AM 46.1091 -154.4019 90° East 519 597 36,000  Level FlightAware Transoceanic
10:59AM 46.1077 -154.1919 91° East 519 597 36,000  Level FlightAware Transoceanic
11:00AM 46.1060 -153.9820 91° East 519 597 36,000  Level FlightAware Transoceanic
11:01AM 46.1039 -153.7722 91° East 519 597 36,000  Level FlightAware Transoceanic
11:02AM 46.1013 -153.5623 91° East 519 597 36,000 480 Level FlightAware Transoceanic
11:03AM 46.1038 -153.4043 91° East 517 595 37,000 480 Climbing FlightAware Transoceanic
11:04AM 46.1003 -153.1913 91° East 517 595 37,000  Level FlightAware Transoceanic
11:05AM 46.0964 -152.9782 92° East 517 595 37,000  Level FlightAware Transoceanic
11:06AM 46.0921 -152.7652 92° East 517 595 37,000  Level FlightAware Transoceanic
11:07AM 46.0874 -152.5522 92° East 517 595 37,000  Level FlightAware Transoceanic
11:08AM 46.0822 -152.3392 92° East 517 595 37,000  Level FlightAware Transoceanic
11:09AM 46.0768 -152.1263 92° East 517 595 37,000  Level FlightAware Transoceanic
11:10AM 46.0709 -151.9134 92° East 517 595 37,000  Level FlightAware Transoceanic
11:10AM 46.0667 -151.8667 92° East 516 594 37,000  Level Oakland Oceanic (ODAPS)
11:11AM 46.0645 -151.7006 93° East 517 595 37,000  Level FlightAware Transoceanic
11:12AM 46.0579 -151.4878 93° East 517 595 37,000  Level FlightAware Transoceanic
11:13AM 46.0508 -151.2751 93° East 517 595 37,000  Level FlightAware Transoceanic
11:14AM 46.0433 -151.0624 93° East 517 595 37,000  Level FlightAware Transoceanic
11:15AM 46.0354 -150.8498 93° East 517 595 37,000  Level FlightAware Transoceanic
11:16AM 46.0334 -150.8291 93° East 516 594 37,000  Level FlightAware Transoceanic
11:17AM 46.0256 -150.6217 93° East 516 594 37,000  Level FlightAware Transoceanic
11:18AM 46.0174 -150.4144 93° East 516 594 37,000  Level FlightAware Transoceanic
11:19AM 46.0089 -150.2072 93° East 516 594 37,000  Level FlightAware Transoceanic
11:19AM 46.0000 -150.0000 95° East 510 587 37,000  Level Oakland Oceanic (ODAPS)
11:20AM 46.0000 -150.0000 95° East 516 594 37,000  Level FlightAware Transoceanic
11:21AM 45.9887 -149.7970 95° East 516 594 37,000  Level FlightAware Transoceanic
11:22AM 45.9769 -149.5940 95° East 516 594 37,000  Level FlightAware Transoceanic
11:23AM 45.9649 -149.3912 95° East 516 594 37,000  Level FlightAware Transoceanic
11:24AM 45.9524 -149.1884 95° East 516 594 37,000  Level FlightAware Transoceanic
11:24AM 45.9500 -149.0667 95° East 506 582 37,000  Level Oakland Oceanic (ODAPS)
11:25AM 45.9397 -148.9857 95° East 516 594 37,000  Level FlightAware Transoceanic
11:26AM 45.9265 -148.7832 95° East 510 587 37,000  Level FlightAware Transoceanic
11:27AM 45.9130 -148.5807 96° East 510 587 37,000  Level FlightAware Transoceanic
11:28AM 45.8991 -148.3783 96° East 510 587 37,000  Level FlightAware Transoceanic
11:29AM 45.8849 -148.1760 96° East 510 587 37,000  Level FlightAware Transoceanic
11:30AM 45.8671 -147.8682 96° East 506 582 37,000  Level FlightAware Transoceanic
11:31AM 45.8521 -147.6688 96° East 506 582 37,000  Level FlightAware Transoceanic
11:32AM 45.8367 -147.4695 96° East 506 582 37,000  Level FlightAware Transoceanic
11:33AM 45.8210 -147.2704 97° East 506 582 37,000  Level FlightAware Transoceanic
11:34AM 45.8049 -147.0713 97° East 506 582 37,000  Level FlightAware Transoceanic
11:35AM 45.7885 -146.8724 97° East 506 582 37,000  Level FlightAware Transoceanic
11:36AM 45.7717 -146.6736 97° East 506 582 37,000  Level FlightAware Transoceanic
11:37AM 45.7546 -146.4749 97° East 506 582 37,000  Level FlightAware Transoceanic
11:38AM 45.7372 -146.2763 97° East 506 582 37,000  Level FlightAware Transoceanic
11:38AM 45.7333 -146.3167 97° East 503 579 37,000  Level Oakland Oceanic (ODAPS)
11:39AM 45.7194 -146.0779 97° East 506 582 37,000  Level FlightAware Transoceanic
11:40AM 45.7013 -145.8795 98° East 506 582 37,000  Level FlightAware Transoceanic
11:41AM 45.6828 -145.6813 98° East 506 582 37,000  Level FlightAware Transoceanic
11:42AM 45.6640 -145.4833 98° East 506 582 37,000  Level FlightAware Transoceanic
11:43AM 45.6448 -145.2854 98° East 506 582 37,000  Level FlightAware Transoceanic
11:44AM 45.6260 -145.1565 98° East 503 579 37,000  Level FlightAware Transoceanic
11:45AM 45.6070 -144.9636 98° East 503 579 37,000  Level FlightAware Transoceanic
11:46AM 45.5877 -144.7708 98° East 503 579 37,000  Level FlightAware Transoceanic
11:47AM 45.5680 -144.5782 98° East 503 579 37,000  Level FlightAware Transoceanic
11:48AM 45.5480 -144.3857 99° East 503 579 37,000  Level FlightAware Transoceanic
11:49AM 45.5277 -144.1933 99° East 503 579 37,000  Level FlightAware Transoceanic
11:50AM 45.5071 -144.0011 99° East 503 579 37,000  Level FlightAware Transoceanic
11:51AM 45.4861 -143.8090 99° East 503 579 37,000  Level FlightAware Transoceanic
11:52AM 45.4648 -143.6171 99° East 503 579 37,000  Level FlightAware Transoceanic
11:52AM 45.4667 -143.6500 99° East 500 575 37,000  Level Oakland Oceanic (ODAPS)
11:53AM 45.4432 -143.4253 99° East 503 579 37,000  Level FlightAware Transoceanic
11:54AM 45.4213 -143.2336 99° East 503 579 37,000  Level FlightAware Transoceanic
11:55AM 45.3990 -143.0421 99° East 503 579 37,000  Level FlightAware Transoceanic
11:56AM 45.3765 -142.8508 100° East 503 579 37,000  Level FlightAware Transoceanic
11:57AM 45.3536 -142.6596 100° East 503 579 37,000  Level FlightAware Transoceanic
11:58AM 45.3319 -142.4910 100° East 500 575 37,000  Level FlightAware Transoceanic
11:59AM 45.3083 -142.2984 100° East 500 575 37,000  Level FlightAware Transoceanic
12:00PM 45.2844 -142.1059 100° East 500 575 37,000  Level FlightAware Transoceanic
12:01PM 45.2601 -141.9136 100° East 500 575 37,000  Level FlightAware Transoceanic
12:02PM 45.2355 -141.7215 100° East 500 575 37,000  Level FlightAware Transoceanic
12:03PM 45.2107 -141.5295 100° East 500 575 37,000  Level FlightAware Transoceanic
12:04PM 45.1854 -141.3377 101° East 500 575 37,000  Level FlightAware Transoceanic
12:05PM 45.1599 -141.1461 101° East 500 575 37,000  Level FlightAware Transoceanic
12:06PM 45.1340 -140.9546 101° East 500 575 37,000  Level FlightAware Transoceanic
12:06PM 45.1333 -141.0000 100° East 493 567 37,000  Level Oakland Oceanic (ODAPS)
12:07PM 45.1079 -140.7633 101° East 500 575 37,000  Level FlightAware Transoceanic
12:08PM 45.0814 -140.5722 101° East 500 575 37,000  Level FlightAware Transoceanic
12:09PM 45.0546 -140.3813 101° East 500 575 37,000  Level FlightAware Transoceanic
12:10PM 45.0275 -140.1906 101° East 500 575 37,000  Level FlightAware Transoceanic
12:11PM 45.0000 -140.0000 115° Southeast 500 575 37,000  Level FlightAware Transoceanic
12:11PM 45.0000 -140.0000 115° Southeast 495 570 37,000  Level Oakland Oceanic (ODAPS)
12:12PM 44.9427 -139.8283 115° Southeast 493 567 37,000  Level FlightAware Transoceanic
12:13PM 44.8851 -139.6569 115° Southeast 493 567 37,000  Level FlightAware Transoceanic
12:14PM 44.8273 -139.4859 116° Southeast 493 567 37,000  Level FlightAware Transoceanic
12:15PM 44.7693 -139.3152 116° Southeast 493 567 37,000  Level FlightAware Transoceanic
12:16PM 44.7109 -139.1449 116° Southeast 493 567 37,000  Level FlightAware Transoceanic
12:17PM 44.6466 -138.9582 116° Southeast 495 570 37,000  Level FlightAware Transoceanic
12:18PM 44.5868 -138.7858 116° Southeast 495 570 37,000  Level FlightAware Transoceanic
12:19PM 44.5267 -138.6138 116° Southeast 495 570 37,000  Level FlightAware Transoceanic
12:20PM 44.4664 -138.4421 116° Southeast 495 570 37,000  Level FlightAware Transoceanic
12:20PM 44.5000 -138.5333 116° Southeast 490 564 37,000  Level Oakland Oceanic (ODAPS)
12:21PM 44.4058 -138.2708 116° Southeast 495 570 37,000  Level FlightAware Transoceanic
12:22PM 44.3449 -138.0998 117° Southeast 495 570 37,000  Level FlightAware Transoceanic
12:23PM 44.2838 -137.9292 117° Southeast 495 570 37,000  Level FlightAware Transoceanic
12:24PM 44.2225 -137.7589 117° Southeast 495 570 37,000  Level FlightAware Transoceanic
12:25PM 44.1609 -137.5890 117° Southeast 495 570 37,000  Level FlightAware Transoceanic
12:26PM 44.1366 -137.5185 117° Southeast 490 564 37,000  Level FlightAware Transoceanic
12:27PM 44.0751 -137.3506 117° Southeast 490 564 37,000  Level FlightAware Transoceanic
12:28PM 44.0134 -137.1831 117° Southeast 490 564 37,000  Level FlightAware Transoceanic
12:29PM 43.9515 -137.0159 117° Southeast 490 564 37,000  Level FlightAware Transoceanic
12:30PM 43.8893 -136.8490 117° Southeast 490 564 37,000  Level FlightAware Transoceanic
12:31PM 43.8269 -136.6825 118° Southeast 490 564 37,000  Level FlightAware Transoceanic
12:32PM 43.7642 -136.5163 118° Southeast 490 564 37,000  Level FlightAware Transoceanic
12:33PM 43.7013 -136.3505 118° Southeast 490 564 37,000  Level FlightAware Transoceanic
12:33PM 43.6500 -136.2167 118° Southeast 491 565 37,000  Level Oakland Oceanic (ODAPS)
12:34PM 43.6382 -136.1850 118° Southeast 490 564 37,000  Level FlightAware Transoceanic
12:35PM 43.5748 -136.0199 118° Southeast 490 564 37,000  Level FlightAware Transoceanic
12:36PM 43.5112 -135.8551 118° Southeast 490 564 37,000  Level FlightAware Transoceanic
12:37PM 43.4474 -135.6907 118° Southeast 490 564 37,000  Level FlightAware Transoceanic
12:38PM 43.3833 -135.5266 118° Southeast 490 564 37,000  Level FlightAware Transoceanic
12:39PM 43.3190 -135.3629 118° Southeast 490 564 37,000  Level FlightAware Transoceanic
12:40PM 43.2646 -135.2260 119° Southeast 491 565 37,000  Level FlightAware Transoceanic
12:41PM 43.1996 -135.0621 119° Southeast 491 565 37,000  Level FlightAware Transoceanic
12:42PM 43.1343 -134.8985 119° Southeast 491 565 37,000  Level FlightAware Transoceanic
12:43PM 43.0687 -134.7353 119° Southeast 491 565 37,000  Level FlightAware Transoceanic
12:44PM 43.0030 -134.5725 119° Southeast 491 565 37,000  Level FlightAware Transoceanic
12:45PM 42.9370 -134.4100 119° Southeast 491 565 37,000  Level FlightAware Transoceanic
12:46PM 42.8708 -134.2478 119° Southeast 491 565 37,000  Level FlightAware Transoceanic
12:47PM 42.8044 -134.0860 119° Southeast 491 565 37,000  Level FlightAware Transoceanic
12:47PM 42.7500 -133.9667 119° Southeast 485 558 37,000  Level Oakland Oceanic (ODAPS)
12:48PM 42.7377 -133.9246 119° Southeast 491 565 37,000  Level FlightAware Transoceanic
12:49PM 42.6708 -133.7635 120° Southeast 491 565 37,000  Level FlightAware Transoceanic
12:50PM 42.6037 -133.6027 120° Southeast 491 565 37,000  Level FlightAware Transoceanic
12:51PM 42.5363 -133.4423 120° Southeast 491 565 37,000  Level FlightAware Transoceanic
12:52PM 42.4688 -133.2822 120° Southeast 491 565 37,000  Level FlightAware Transoceanic
12:53PM 42.4010 -133.1225 120° Southeast 491 565 37,000  Level FlightAware Transoceanic
12:54PM 42.3426 -132.9948 120° Southeast 485 558 37,000  Level FlightAware Transoceanic
12:55PM 42.2739 -132.8340 120° Southeast 485 558 37,000  Level FlightAware Transoceanic
12:56PM 42.2049 -132.6736 120° Southeast 485 558 37,000  Level FlightAware Transoceanic
12:57PM 42.1358 -132.5136 120° Southeast 485 558 37,000  Level FlightAware Transoceanic
12:58PM 42.0664 -132.3539 120° Southeast 485 558 37,000  Level FlightAware Transoceanic
12:59PM 41.9969 -132.1945 121° Southeast 485 558 37,000  Level FlightAware Transoceanic
01:00PM 41.9271 -132.0355 121° Southeast 485 558 37,000  Level FlightAware Transoceanic
01:01PM 41.8570 -131.8769 121° Southeast 485 558 37,000  Level FlightAware Transoceanic
01:01PM 41.8333 -131.8000 121° Southeast 480 552 37,000  Level Oakland Oceanic (ODAPS)
01:02PM 41.7868 -131.7186 121° Southeast 485 558 37,000  Level FlightAware Transoceanic
01:03PM 41.7163 -131.5606 121° Southeast 485 558 37,000  Level FlightAware Transoceanic
01:04PM 41.6456 -131.4030 121° Southeast 485 558 37,000  Level FlightAware Transoceanic
01:05PM 41.5747 -131.2457 121° Southeast 485 558 37,000  Level FlightAware Transoceanic
01:06PM 41.5036 -131.0888 121° Southeast 485 558 37,000  Level FlightAware Transoceanic
01:07PM 41.4202 -130.8942 122° Southeast 480 552 37,000  Level FlightAware Transoceanic
01:08PM 41.3506 -130.7444 122° Southeast 480 552 37,000  Level FlightAware Transoceanic
01:09PM 41.2809 -130.5949 122° Southeast 480 552 37,000  Level FlightAware Transoceanic
01:10PM 41.2109 -130.4457 122° Southeast 480 552 37,000  Level FlightAware Transoceanic
01:11PM 41.1408 -130.2968 122° Southeast 480 552 37,000  Level FlightAware Transoceanic
01:12PM 41.0705 -130.1482 122° Southeast 480 552 37,000  Level FlightAware Transoceanic
01:13PM 41.0000 -130.0000 106° East 480 552 37,000  Level FlightAware Transoceanic
01:13PM 41.0000 -130.0000 106° East 483 556 37,000  Level Oakland Oceanic (ODAPS)
01:14PM 40.9632 -129.8317 106° East 480 552 37,000  Level FlightAware Transoceanic
01:15PM 40.9261 -129.6636 106° East 480 552 37,000  Level FlightAware Transoceanic
01:15PM 40.9333 -129.6667 107° East 488 562 37,000  Level Oakland Oceanic (ODAPS)
01:16PM 40.8887 -129.4957 106° East 480 552 37,000  Level FlightAware Transoceanic
01:17PM 40.8512 -129.3279 107° East 480 552 37,000  Level FlightAware Transoceanic
01:18PM 40.8134 -129.1604 107° East 480 552 37,000  Level FlightAware Transoceanic
01:19PM 40.7753 -128.9930 107° East 483 556 37,000  Level FlightAware Transoceanic
01:20PM 40.7370 -128.8259 107° East 483 556 37,000  Level FlightAware Transoceanic
01:21PM 40.7030 -128.6608 107° East 488 562 37,000  Level FlightAware Transoceanic
01:22PM 40.6638 -128.4938 107° East 488 562 37,000  Level FlightAware Transoceanic
01:23PM 40.6243 -128.3270 107° East 488 562 37,000  Level FlightAware Transoceanic
01:24PM 40.5846 -128.1604 107° East 488 562 37,000  Level FlightAware Transoceanic
01:25PM 40.5447 -127.9941 108° East 488 562 37,000  Level FlightAware Transoceanic
01:26PM 40.5045 -127.8279 108° East 488 562 37,000  Level FlightAware Transoceanic
01:27PM 40.4641 -127.6619 108° East 488 562 37,000  Level FlightAware Transoceanic
01:28PM 40.4234 -127.4961 108° East 488 562 37,000  Level FlightAware Transoceanic
01:28PM 40.4214 -127.4894 113° Southeast 489 563 37,000  Level Oakland Center
01:29PM 40.3825 -127.3306 108° East 488 562 37,000  Level FlightAware Transoceanic
01:29PM 40.3833 -127.3333 108° East 493 567 37,000  Level Oakland Oceanic (ODAPS)
01:30PM 40.3414 -127.1652 108° East 488 562 37,000  Level FlightAware Transoceanic
01:30PM 40.3386 -127.1506 108° East 489 563 37,000  Level Oakland Center
01:31PM 40.3000 -127.0000 112° Southeast 488 562 37,000  Level FlightAware Transoceanic
01:31PM 40.2953 -126.9811 108° East 491 565 37,000  Level Oakland Center
01:32PM 40.2482 -126.8349 112° Southeast 488 562 37,000  Level FlightAware Transoceanic
01:32PM 40.2353 -126.8231 116° Southeast 486 559 37,000  Level Oakland Center
01:33PM 40.1961 -126.6700 113° Southeast 488 562 37,000  Level FlightAware Transoceanic
01:38PM 39.8050 -125.9970 116° Southeast 37,000  Level FlightAware
01:38PM 39.7610 -125.9120 124° Southeast 473 544 37,000  Level FlightAware
01:39PM 39.7170 -125.8300 125° Southeast 473 544 37,000  Level FlightAware
01:39PM 39.6600 -125.7220 124° Southeast 474 545 37,000  Level FlightAware
01:40PM 39.6280 -125.6580 123° Southeast 474 545 37,000  Level FlightAware
01:41PM 39.5660 -125.5450 125° Southeast 471 542 37,000  Level FlightAware
01:41PM 39.5200 -125.4590 125° Southeast 470 541 37,000  Level FlightAware
01:42PM 39.5050 -125.4300 124° Southeast 469 540 37,000  Level FlightAware
01:43PM 39.4330 -125.2910 124° Southeast 467 537 37,000  Level FlightAware
01:43PM 39.3950 -125.2260 127° Southeast 467 537 37,000  Level FlightAware
01:44PM 39.3550 -125.1460 123° Southeast 467 537 37,000  Level FlightAware
01:44PM 39.3080 -125.0630 126° Southeast 467 537 37,000  Level FlightAware
01:45PM 39.2560 -124.9670 125° Southeast 473 544 37,000  Level FlightAware
01:45PM 39.2210 -124.9030 125° Southeast 473 544 37,000  Level FlightAware
01:46PM 39.1660 -124.8020 125° Southeast 474 545 37,000  Level FlightAware
01:47PM 39.1240 -124.7250 125° Southeast 475 547 37,000  Level FlightAware
01:47PM 39.0790 -124.6420 125° Southeast 473 544 37,000 -360 Level FlightAware
01:48PM 39.0330 -124.5590 125° Southeast 468 539 36,600 -960 Descending FlightAware
01:48PM 38.9920 -124.4850 125° Southeast 472 543 35,900 -1,200 Descending FlightAware
01:49PM 38.9500 -124.4080 125° Southeast 472 543 35,300 -960 Descending FlightAware
01:50PM 38.9020 -124.3210 125° Southeast 471 542 34,800 -960 Descending FlightAware
01:50PM 38.8630 -124.2510 126° Southeast 473 544 34,200 -1,200 Descending FlightAware
01:51PM 38.8160 -124.1670 126° Southeast 475 547 33,500 -1,080 Descending FlightAware
01:51PM 38.7690 -124.0820 125° Southeast 476 548 32,900 -900 Descending FlightAware
01:52PM 38.7310 -124.0130 125° Southeast 473 544 32,500 -900 Descending FlightAware
01:52PM 38.6830 -123.9280 126° Southeast 468 539 31,900 -1,260 Descending FlightAware
01:53PM 38.6370 -123.8450 125° Southeast 463 533 31,000 -1,740 Descending FlightAware
01:54PM 38.5960 -123.7720 126° Southeast 457 526 29,900 -2,160 Descending FlightAware
01:54PM 38.5520 -123.6950 126° Southeast 450 518 28,600 -2,100 Descending FlightAware
01:55PM 38.5110 -123.6220 126° Southeast 444 511 27,500 -1,980 Descending FlightAware
01:55PM 38.4730 -123.5540 126° Southeast 437 503 26,400 -2,040 Descending FlightAware
01:56PM 38.4280 -123.4760 126° Southeast 430 495 25,100 -1,860 Descending FlightAware
01:57PM 38.3840 -123.3990 126° Southeast 423 487 24,100 -1,020 Descending FlightAware
01:57PM 38.3440 -123.3270 125° Southeast 416 479 23,900 -1,260 Descending FlightAware
01:58PM 38.3020 -123.2550 127° Southeast 406 467 22,600 -2,520 Descending FlightAware
01:58PM 38.2680 -123.1960 126° Southeast 403 464 21,100 -2,880 Descending FlightAware
01:59PM 38.2280 -123.1260 126° Southeast 395 455 19,400 -2,640 Descending FlightAware
01:59PM 38.1910 -123.0600 125° Southeast 392 451 17,900 -2,100 Descending FlightAware
02:00PM 38.1440 -122.9790 126° Southeast 380 437 16,600 -1,860 Descending FlightAware
02:01PM 38.1070 -122.9140 126° Southeast 375 432 15,500 -1,860 Descending FlightAware
02:01PM 38.0730 -122.8630 130° Southeast 369 425 14,600 -1,740 Descending FlightAware
02:02PM 38.0290 -122.8120 138° Southeast 360 414 13,600 -1,440 Descending FlightAware
02:02PM 37.9930 -122.7740 140° Southeast 355 409 12,900 -1,620 Descending FlightAware
02:03PM 37.9470 -122.7240 139° Southeast 348 400 11,800 -1,680 Descending FlightAware
02:04PM 37.9000 -122.6740 140° Southeast 345 397 11,000 -660 Descending FlightAware
02:04PM 37.8500 -122.6200 140° Southeast 346 398 11,000  Level FlightAware
02:05PM 37.8070 -122.5750 140° Southeast 346 398 11,000 -120 Level FlightAware
02:05PM 37.7747 -122.5390 139° Southeast 346 398 10,900 -120 Descending FlightAware ADS-B
02:06PM 37.7255 -122.4870 140° Southeast 340 391 10,900  Level FlightAware ADS-B
02:07PM 37.6870 -122.4460 140° Southeast 283 326 10,900 60 Level FlightAware
02:07PM 37.6708 -122.4280 139° Southeast 267 307 11,000  Climbing FlightAware ADS-B
02:07PM 37.6418 -122.3980 141° Southeast 263 303 10,900 -120 Descending FlightAware ADS-B
02:08PM 37.6150 -122.3690 139° Southeast 262 302 10,900 -300 Level FlightAware ADS-B
02:08PM 37.5976 -122.3560 149° Southeast 259 298 10,700 -1,020 Descending FlightAware ADS-B
02:09PM 37.5644 -122.3350 153° Southeast 258 297 10,100 -900 Descending FlightAware ADS-B
02:09PM 37.5482 -122.3250 154° Southeast 259 298 10,000 -600 Descending FlightAware ADS-B
02:09PM 37.5319 -122.3140 152° Southeast 256 295 9,800 -1,200 Descending FlightAware ADS-B
02:09PM 37.5161 -122.3040 153° Southeast 250 288 9,400 -1,980 Descending FlightAware ADS-B
02:10PM 37.4999 -122.2940 154° Southeast 251 289 8,800 -2,100 Descending FlightAware ADS-B
02:10PM 37.4835 -122.2840 154° Southeast 256 295 8,300 -1,560 Descending FlightAware ADS-B
02:10PM 37.4674 -122.2740 154° Southeast 255 293 8,000 -1,020 Descending FlightAware ADS-B
02:10PM 37.4502 -122.2640 155° Southeast 250 288 7,800 -780 Descending FlightAware ADS-B
02:11PM 37.4341 -122.2540 154° Southeast 248 285 7,600 -1,020 Descending FlightAware ADS-B
02:11PM 37.4193 -122.2450 154° Southeast 246 283 7,300 -960 Descending FlightAware ADS-B
02:11PM 37.4148 -122.2410 145° Southeast 245 282 7,300 -780 Level FlightAware ADS-B
02:11PM 37.4116 -122.2380 143° Southeast 244 281 7,200 -900 Descending FlightAware ADS-B
02:11PM 37.4092 -122.2340 127° Southeast 243 280 7,200 -780 Level FlightAware ADS-B
02:11PM 37.4065 -122.2300 130° Southeast 242 278 7,100 -600 Descending FlightAware ADS-B
02:11PM 37.4031 -122.2220 118° Southeast 239 275 7,100 -360 Level FlightAware ADS-B
02:12PM 37.3978 -122.2070 114° Southeast 232 267 7,000 -480 Descending FlightAware ADS-B
02:12PM 37.3915 -122.1890 114° Southeast 217 250 6,900 -360 Descending FlightAware ADS-B
02:12PM 37.3902 -122.1850 112° Southeast 213 245 6,900  Level FlightAware ADS-B
02:12PM 37.3892 -122.1810 107° East 210 242 6,900  Level FlightAware ADS-B
02:12PM 37.3886 -122.1770 101° East 208 239 6,900  Level FlightAware ADS-B
02:12PM 37.3882 -122.1730 97° East 205 236 6,900 -900 Level FlightAware ADS-B
02:12PM 37.3884 -122.1690 86° East 205 236 6,800 -780 Descending FlightAware ADS-B
02:12PM 37.3891 -122.1640 80° East 204 235 6,800 -780 Level FlightAware ADS-B
02:12PM 37.3903 -122.1600 69° East 202 232 6,700 -1,500 Descending FlightAware ADS-B
02:12PM 37.3921 -122.1560 60° Northeast 201 231 6,600 -1,740 Descending FlightAware ADS-B
02:12PM 37.3941 -122.1530 50° Northeast 200 230 6,500 -1,740 Descending FlightAware ADS-B
02:12PM 37.3964 -122.1500 46° Northeast 200 230 6,400 -1,200 Descending FlightAware ADS-B
02:13PM 37.4011 -122.1460 34° Northeast 199 229 6,300 -1,200 Descending FlightAware ADS-B
02:13PM 37.4045 -122.1440 25° Northeast 200 230 6,200 -1,500 Descending FlightAware ADS-B
02:13PM 37.4078 -122.1420 26° Northeast 202 232 6,100 -1,800 Descending FlightAware ADS-B
02:13PM 37.4209 -122.1340 26° Northeast 205 236 5,600 -1,620 Descending FlightAware ADS-B
02:13PM 37.4329 -122.1270 25° Northeast 205 236 5,300 -1,200 Descending FlightAware ADS-B
02:13PM 37.4438 -122.1200 27° Northeast 202 232 5,100 -960 Descending FlightAware ADS-B
02:13PM 37.4493 -122.1170 23° Northeast 201 231 5,000 -1,140 Descending FlightAware ADS-B
02:14PM 37.4526 -122.1160 14° North 200 230 4,900 -900 Descending FlightAware ADS-B
02:14PM 37.4553 -122.1150 16° North 199 229 4,900 -780 Level FlightAware ADS-B
02:14PM 37.4599 -122.1150 360° North 198 228 4,800 -1,500 Descending FlightAware ADS-B
02:14PM 37.4633 -122.1150 360° North 197 227 4,700 -900 Descending FlightAware ADS-B
02:14PM 37.4669 -122.1160 348° North 196 226 4,700 -720 Level FlightAware ADS-B
02:14PM 37.4706 -122.1190 327° Northwest 195 224 4,600 -1,200 Descending FlightAware ADS-B
02:14PM 37.4742 -122.1210 336° Northwest 196 226 4,500 -780 Descending FlightAware ADS-B
02:14PM 37.4765 -122.1230 325° Northwest 197 227 4,500 -1,200 Level FlightAware ADS-B
02:14PM 37.4854 -122.1310 325° Northwest 198 228 4,200 -1,620 Descending FlightAware ADS-B
02:14PM 37.4878 -122.1330 327° Northwest 198 228 4,100 -1,500 Descending FlightAware ADS-B
02:14PM 37.4912 -122.1370 317° Northwest 198 228 4,000 -960 Descending FlightAware ADS-B
02:14PM 37.4963 -122.1440 313° West 197 227 3,900 -840 Descending FlightAware ADS-B
02:15PM 37.5014 -122.1490 322° Northwest 197 227 3,800 -960 Descending FlightAware ADS-B
02:15PM 37.5060 -122.1530 325° Northwest 197 227 3,700 -1,440 Descending FlightAware ADS-B
02:15PM 37.5107 -122.1580 320° Northwest 196 226 3,500 -1,200 Descending FlightAware ADS-B
02:15PM 37.5205 -122.1660 327° Northwest 196 226 3,300 -1,020 Descending FlightAware ADS-B
02:15PM 37.5240 -122.1700 318° Northwest 196 226 3,200 -1,140 Descending FlightAware ADS-B
02:15PM 37.5279 -122.1750 315° West 195 224 3,100 -900 Descending FlightAware ADS-B
02:15PM 37.5373 -122.1880 312° West 194 223 2,900 -960 Descending FlightAware ADS-B
02:16PM 37.5393 -122.1900 322° Northwest 194 223 2,800 -1,380 Descending FlightAware ADS-B
02:16PM 37.5427 -122.1950 311° West 193 222 2,700 -1,200 Descending FlightAware ADS-B
02:16PM 37.5450 -122.1990 306° West 193 222 2,600 -1,140 Descending FlightAware ADS-B
02:16PM 37.5480 -122.2050 302° West 193 222 2,500 -540 Descending FlightAware ADS-B
02:16PM 37.5558 -122.2210 302° West 191 220 2,400 -600 Descending FlightAware ADS-B
02:16PM 37.5618 -122.2340 300° West 184 212 2,200 -960 Descending FlightAware ADS-B
02:16PM 37.5667 -122.2450 299° West 174 200 2,000 -1,080 Descending FlightAware ADS-B
02:17PM 37.5706 -122.2540 299° West 166 191 1,800 -1,200 Descending FlightAware ADS-B
02:17PM 37.5759 -122.2670 297° West 165 190 1,500 -1,140 Descending FlightAware ADS-B
02:17PM 37.5799 -122.2770 297° West 157 181 1,300 -720 Descending FlightAware ADS-B
02:17PM 37.5843 -122.2870 299° West 146 168 1,200 -660 Descending FlightAware ADS-B
02:18PM 37.5891 -122.2990 297° West 143 165 1,000 -780 Descending FlightAware ADS-B
02:18PM 37.5938 -122.3100 298° West 142 163 800 -780 Descending FlightAware ADS-B
02:18PM 37.5991 -122.3230 297° West 140 161 600 -780 Descending FlightAware ADS-B
02:18PM 37.6014 -122.3280 300° West 140 161 500 -840 Descending FlightAware ADS-B
02:19PM 37.6059 -122.3390 297° West 139 160 300 -720 Descending FlightAware ADS-B
02:19PM 37.6089 -122.3460 298° West 137 158 200 -600 Descending FlightAware ADS-B
02:19PM 37.6135 -122.3570 298° West 139 160 -780 Descending FlightAware ADS-B